sensor_id;sensor_type;location;lat;lon;timestamp;P1;durP1;ratioP1;P2;durP2;ratioP2
146;SDS011;45999;48.808;9.182;2022-11-14T00:00:28;12.90;;;11.60;;
146;SDS011;45999;48.808;9.182;2022-11-14T00:02:58;13.30;;;11.90;;
146;SDS011;45999;48.808;9.182;2022-11-14T00:05:26;14.47;;;12.00;;
146;SDS011;45999;48.808;9.182;2022-11-14T00:07:52;14.87;;;11.77;;
146;SDS011;45999;48.808;9.182;2022-11-14T00:10:19;13.37;;;11.70;;
146;SDS011;45999;48.808;9.182;2022-11-14T00:12:46;12.80;;;11.47;;
146;SDS011;45999;48.808;9.182;2022-11-14T00:15:12;13.83;;;11.00;;
146;SDS011;45999;48.808;9.182;2022-11-14T00:17:39;12.43;;;11.13;;
146;SDS011;45999;48.808;9.182;2022-11-14T00:20:06;16.23;;;11.83;;
146;SDS011;45999;48.808;9.182;2022-11-14T00:22:34;12.33;;;11.03;;
146;SDS011;45999;48.808;9.182;2022-11-14T00:25:00;12.33;;;11.03;;
146;SDS011;45999;48.808;9.182;2022-11-14T00:27:27;13.43;;;11.87;;
146;SDS011;45999;48.808;9.182;2022-11-14T00:29:54;12.17;;;10.43;;
146;SDS011;45999;48.808;9.182;2022-11-14T00:32:20;12.27;;;10.97;;
146;SDS011;45999;48.808;9.182;2022-11-14T00:34:47;13.03;;;10.87;;
146;SDS011;45999;48.808;9.182;2022-11-14T00:37:14;12.83;;;11.40;;
146;SDS011;45999;48.808;9.182;2022-11-14T00:39:40;13.27;;;11.50;;
146;SDS011;45999;48.808;9.182;2022-11-14T00:42:07;13.00;;;11.30;;
146;SDS011;45999;48.808;9.182;2022-11-14T00:44:33;12.87;;;10.83;;
146;SDS011;45999;48.808;9.182;2022-11-14T00:46:59;12.47;;;11.17;;
146;SDS011;45999;48.808;9.182;2022-11-14T00:49:26;12.53;;;11.27;;
146;SDS011;45999;48.808;9.182;2022-11-14T00:51:52;12.73;;;10.83;;
146;SDS011;45999;48.808;9.182;2022-11-14T00:54:18;12.37;;;11.07;;
146;SDS011;45999;48.808;9.182;2022-11-14T00:56:45;13.67;;;11.93;;
146;SDS011;45999;48.808;9.182;2022-11-14T00:59:11;14.70;;;11.67;;
146;SDS011;45999;48.808;9.182;2022-11-14T01:01:37;11.47;;;10.33;;
146;SDS011;45999;48.808;9.182;2022-11-14T01:04:04;12.10;;;10.33;;
146;SDS011;45999;48.808;9.182;2022-11-14T01:06:30;11.47;;;10.27;;
146;SDS011;45999;48.808;9.182;2022-11-14T01:08:57;11.23;;;10.03;;
146;SDS011;45999;48.808;9.182;2022-11-14T01:11:23;12.50;;;10.23;;
146;SDS011;45999;48.808;9.182;2022-11-14T01:13:49;12.77;;;9.97;;
146;SDS011;45999;48.808;9.182;2022-11-14T01:16:16;12.00;;;10.03;;
146;SDS011;45999;48.808;9.182;2022-11-14T01:18:43;12.97;;;10.27;;
146;SDS011;45999;48.808;9.182;2022-11-14T01:21:10;11.63;;;10.03;;
146;SDS011;45999;48.808;9.182;2022-11-14T01:23:38;11.17;;;9.90;;
146;SDS011;45999;48.808;9.182;2022-11-14T01:26:09;12.70;;;10.43;;
146;SDS011;45999;48.808;9.182;2022-11-14T01:28:38;11.93;;;10.00;;
146;SDS011;45999;48.808;9.182;2022-11-14T01:31:09;12.80;;;10.30;;
146;SDS011;45999;48.808;9.182;2022-11-14T01:33:50;10.40;;;9.20;;
146;SDS011;45999;48.808;9.182;2022-11-14T01:36:18;11.03;;;9.30;;
146;SDS011;45999;48.808;9.182;2022-11-14T01:38:45;10.63;;;9.43;;
146;SDS011;45999;48.808;9.182;2022-11-14T01:41:12;10.20;;;9.10;;
146;SDS011;45999;48.808;9.182;2022-11-14T01:43:40;9.97;;;8.70;;
146;SDS011;45999;48.808;9.182;2022-11-14T01:48:44;10.53;;;9.30;;
146;SDS011;45999;48.808;9.182;2022-11-14T01:54:09;10.77;;;8.93;;
146;SDS011;45999;48.808;9.182;2022-11-14T01:56:42;11.13;;;9.73;;
146;SDS011;45999;48.808;9.182;2022-11-14T01:59:14;10.43;;;9.00;;
146;SDS011;45999;48.808;9.182;2022-11-14T02:01:46;10.90;;;8.63;;
146;SDS011;45999;48.808;9.182;2022-11-14T02:04:16;12.23;;;9.80;;
146;SDS011;45999;48.808;9.182;2022-11-14T02:06:47;10.73;;;9.00;;
146;SDS011;45999;48.808;9.182;2022-11-14T02:09:16;10.60;;;9.30;;
146;SDS011;45999;48.808;9.182;2022-11-14T02:11:43;10.67;;;9.00;;
146;SDS011;45999;48.808;9.182;2022-11-14T02:14:10;11.13;;;9.93;;
146;SDS011;45999;48.808;9.182;2022-11-14T02:16:38;9.70;;;8.73;;
146;SDS011;45999;48.808;9.182;2022-11-14T02:19:06;9.90;;;8.90;;
146;SDS011;45999;48.808;9.182;2022-11-14T02:21:33;10.90;;;9.70;;
146;SDS011;45999;48.808;9.182;2022-11-14T02:23:59;12.73;;;9.77;;
146;SDS011;45999;48.808;9.182;2022-11-14T02:26:26;11.87;;;9.90;;
146;SDS011;45999;48.808;9.182;2022-11-14T02:28:52;12.30;;;10.50;;
146;SDS011;45999;48.808;9.182;2022-11-14T02:31:20;13.93;;;11.80;;
146;SDS011;45999;48.808;9.182;2022-11-14T02:33:46;13.20;;;11.30;;
146;SDS011;45999;48.808;9.182;2022-11-14T02:36:13;11.63;;;10.13;;
146;SDS011;45999;48.808;9.182;2022-11-14T02:38:39;12.37;;;10.73;;
146;SDS011;45999;48.808;9.182;2022-11-14T02:41:05;11.90;;;10.70;;
146;SDS011;45999;48.808;9.182;2022-11-14T02:43:32;13.77;;;10.97;;
146;SDS011;45999;48.808;9.182;2022-11-14T02:45:58;13.23;;;11.60;;
146;SDS011;45999;48.808;9.182;2022-11-14T02:48:24;12.27;;;10.83;;
146;SDS011;45999;48.808;9.182;2022-11-14T02:50:51;12.20;;;10.73;;
146;SDS011;45999;48.808;9.182;2022-11-14T02:53:17;12.33;;;10.57;;
146;SDS011;45999;48.808;9.182;2022-11-14T02:55:44;12.60;;;10.53;;
146;SDS011;45999;48.808;9.182;2022-11-14T02:58:10;12.37;;;11.00;;
146;SDS011;45999;48.808;9.182;2022-11-14T03:00:36;12.13;;;10.03;;
146;SDS011;45999;48.808;9.182;2022-11-14T03:03:03;14.10;;;10.67;;
146;SDS011;45999;48.808;9.182;2022-11-14T03:05:29;13.20;;;10.80;;
146;SDS011;45999;48.808;9.182;2022-11-14T03:07:55;13.70;;;11.00;;
146;SDS011;45999;48.808;9.182;2022-11-14T03:10:22;13.83;;;11.40;;
146;SDS011;45999;48.808;9.182;2022-11-14T03:12:52;12.60;;;10.47;;
146;SDS011;45999;48.808;9.182;2022-11-14T03:15:22;12.90;;;10.57;;
146;SDS011;45999;48.808;9.182;2022-11-14T03:17:49;12.50;;;10.77;;
146;SDS011;45999;48.808;9.182;2022-11-14T03:20:16;12.23;;;9.90;;
146;SDS011;45999;48.808;9.182;2022-11-14T03:22:43;13.83;;;10.53;;
146;SDS011;45999;48.808;9.182;2022-11-14T03:25:09;11.63;;;10.03;;
146;SDS011;45999;48.808;9.182;2022-11-14T03:27:35;11.53;;;10.13;;
146;SDS011;45999;48.808;9.182;2022-11-14T03:30:02;12.00;;;10.37;;
146;SDS011;45999;48.808;9.182;2022-11-14T03:32:29;12.10;;;10.27;;
146;SDS011;45999;48.808;9.182;2022-11-14T03:34:56;11.47;;;10.13;;
146;SDS011;45999;48.808;9.182;2022-11-14T03:37:22;11.30;;;9.57;;
146;SDS011;45999;48.808;9.182;2022-11-14T03:39:49;11.47;;;10.27;;
146;SDS011;45999;48.808;9.182;2022-11-14T03:42:15;13.53;;;10.33;;
146;SDS011;45999;48.808;9.182;2022-11-14T03:44:41;11.90;;;10.07;;
146;SDS011;45999;48.808;9.182;2022-11-14T03:47:08;11.73;;;10.53;;
146;SDS011;45999;48.808;9.182;2022-11-14T03:49:34;11.90;;;10.27;;
146;SDS011;45999;48.808;9.182;2022-11-14T03:52:01;12.40;;;10.77;;
146;SDS011;45999;48.808;9.182;2022-11-14T03:54:27;12.43;;;10.93;;
146;SDS011;45999;48.808;9.182;2022-11-14T03:56:53;11.30;;;10.03;;
146;SDS011;45999;48.808;9.182;2022-11-14T03:59:20;14.37;;;11.53;;
146;SDS011;45999;48.808;9.182;2022-11-14T04:01:46;12.80;;;11.10;;
146;SDS011;45999;48.808;9.182;2022-11-14T04:04:13;13.77;;;11.80;;
146;SDS011;45999;48.808;9.182;2022-11-14T04:06:40;14.30;;;11.27;;
146;SDS011;45999;48.808;9.182;2022-11-14T04:09:06;14.43;;;12.07;;
146;SDS011;45999;48.808;9.182;2022-11-14T04:11:32;14.47;;;11.57;;
146;SDS011;45999;48.808;9.182;2022-11-14T04:13:59;11.83;;;10.63;;
146;SDS011;45999;48.808;9.182;2022-11-14T04:16:25;14.17;;;11.03;;
146;SDS011;45999;48.808;9.182;2022-11-14T04:18:51;13.30;;;11.43;;
146;SDS011;45999;48.808;9.182;2022-11-14T04:21:18;14.53;;;11.47;;
146;SDS011;45999;48.808;9.182;2022-11-14T04:23:44;13.70;;;12.17;;
146;SDS011;45999;48.808;9.182;2022-11-14T04:26:10;15.73;;;12.53;;
146;SDS011;45999;48.808;9.182;2022-11-14T04:28:37;15.87;;;12.50;;
146;SDS011;45999;48.808;9.182;2022-11-14T04:31:03;15.60;;;12.93;;
146;SDS011;45999;48.808;9.182;2022-11-14T04:33:30;14.57;;;12.80;;
146;SDS011;45999;48.808;9.182;2022-11-14T04:35:56;16.43;;;14.03;;
146;SDS011;45999;48.808;9.182;2022-11-14T04:38:22;14.60;;;12.43;;
146;SDS011;45999;48.808;9.182;2022-11-14T04:40:49;16.13;;;13.47;;
146;SDS011;45999;48.808;9.182;2022-11-14T04:43:17;14.93;;;13.33;;
146;SDS011;45999;48.808;9.182;2022-11-14T04:45:44;16.10;;;13.00;;
146;SDS011;45999;48.808;9.182;2022-11-14T04:48:10;15.57;;;12.50;;
146;SDS011;45999;48.808;9.182;2022-11-14T04:50:37;16.53;;;13.43;;
146;SDS011;45999;48.808;9.182;2022-11-14T04:53:04;16.57;;;13.90;;
146;SDS011;45999;48.808;9.182;2022-11-14T04:55:30;16.77;;;13.93;;
146;SDS011;45999;48.808;9.182;2022-11-14T04:57:57;16.03;;;13.47;;
146;SDS011;45999;48.808;9.182;2022-11-14T05:00:24;14.57;;;12.93;;
146;SDS011;45999;48.808;9.182;2022-11-14T05:02:51;14.60;;;12.53;;
146;SDS011;45999;48.808;9.182;2022-11-14T05:05:17;15.67;;;12.30;;
146;SDS011;45999;48.808;9.182;2022-11-14T05:07:43;15.07;;;12.30;;
146;SDS011;45999;48.808;9.182;2022-11-14T05:10:10;13.97;;;12.43;;
146;SDS011;45999;48.808;9.182;2022-11-14T05:12:36;14.43;;;12.27;;
146;SDS011;45999;48.808;9.182;2022-11-14T05:15:03;14.27;;;12.63;;
146;SDS011;45999;48.808;9.182;2022-11-14T05:17:29;14.07;;;12.57;;
146;SDS011;45999;48.808;9.182;2022-11-14T05:19:55;15.50;;;12.47;;
146;SDS011;45999;48.808;9.182;2022-11-14T05:22:22;14.73;;;12.20;;
146;SDS011;45999;48.808;9.182;2022-11-14T05:24:48;16.30;;;13.17;;
146;SDS011;45999;48.808;9.182;2022-11-14T05:27:15;14.17;;;12.67;;
146;SDS011;45999;48.808;9.182;2022-11-14T05:29:41;15.90;;;12.73;;
146;SDS011;45999;48.808;9.182;2022-11-14T05:32:08;15.70;;;12.17;;
146;SDS011;45999;48.808;9.182;2022-11-14T05:34:34;18.97;;;13.20;;
146;SDS011;45999;48.808;9.182;2022-11-14T05:37:00;16.50;;;12.53;;
146;SDS011;45999;48.808;9.182;2022-11-14T05:39:28;13.80;;;11.90;;
146;SDS011;45999;48.808;9.182;2022-11-14T05:41:54;14.47;;;12.80;;
146;SDS011;45999;48.808;9.182;2022-11-14T05:44:20;19.17;;;11.87;;
146;SDS011;45999;48.808;9.182;2022-11-14T05:46:47;15.27;;;12.37;;
146;SDS011;45999;48.808;9.182;2022-11-14T05:49:13;12.87;;;11.50;;
146;SDS011;45999;48.808;9.182;2022-11-14T05:51:39;14.10;;;12.13;;
146;SDS011;45999;48.808;9.182;2022-11-14T05:54:06;12.97;;;11.27;;
146;SDS011;45999;48.808;9.182;2022-11-14T05:56:32;15.40;;;12.03;;
146;SDS011;45999;48.808;9.182;2022-11-14T05:58:59;14.93;;;11.50;;
146;SDS011;45999;48.808;9.182;2022-11-14T06:01:25;16.47;;;12.60;;
146;SDS011;45999;48.808;9.182;2022-11-14T06:03:52;14.23;;;11.63;;
146;SDS011;45999;48.808;9.182;2022-11-14T06:06:19;14.67;;;10.80;;
146;SDS011;45999;48.808;9.182;2022-11-14T06:08:46;14.27;;;11.37;;
146;SDS011;45999;48.808;9.182;2022-11-14T06:11:16;15.40;;;10.97;;
146;SDS011;45999;48.808;9.182;2022-11-14T06:13:44;12.97;;;10.60;;
146;SDS011;45999;48.808;9.182;2022-11-14T06:16:12;13.33;;;10.57;;
146;SDS011;45999;48.808;9.182;2022-11-14T06:18:41;12.97;;;10.23;;
146;SDS011;45999;48.808;9.182;2022-11-14T06:21:11;12.70;;;10.77;;
146;SDS011;45999;48.808;9.182;2022-11-14T06:23:39;13.27;;;10.57;;
146;SDS011;45999;48.808;9.182;2022-11-14T06:26:08;14.57;;;11.37;;
146;SDS011;45999;48.808;9.182;2022-11-14T06:28:56;14.57;;;10.17;;
146;SDS011;45999;48.808;9.182;2022-11-14T06:31:24;13.07;;;10.20;;
146;SDS011;45999;48.808;9.182;2022-11-14T06:33:51;10.93;;;9.57;;
146;SDS011;45999;48.808;9.182;2022-11-14T06:36:18;12.67;;;10.33;;
146;SDS011;45999;48.808;9.182;2022-11-14T06:38:44;11.37;;;10.17;;
146;SDS011;45999;48.808;9.182;2022-11-14T06:41:12;12.30;;;10.33;;
146;SDS011;45999;48.808;9.182;2022-11-14T06:43:41;13.07;;;10.67;;
146;SDS011;45999;48.808;9.182;2022-11-14T06:46:09;12.87;;;10.60;;
146;SDS011;45999;48.808;9.182;2022-11-14T06:48:38;12.57;;;10.50;;
146;SDS011;45999;48.808;9.182;2022-11-14T06:51:05;15.20;;;10.20;;
146;SDS011;45999;48.808;9.182;2022-11-14T06:53:32;13.70;;;9.97;;
146;SDS011;45999;48.808;9.182;2022-11-14T06:58:28;14.40;;;9.43;;
146;SDS011;45999;48.808;9.182;2022-11-14T07:01:08;11.63;;;9.80;;
146;SDS011;45999;48.808;9.182;2022-11-14T07:03:37;12.93;;;9.10;;
146;SDS011;45999;48.808;9.182;2022-11-14T07:06:04;11.17;;;9.10;;
146;SDS011;45999;48.808;9.182;2022-11-14T07:08:31;11.93;;;9.93;;
146;SDS011;45999;48.808;9.182;2022-11-14T07:11:02;10.33;;;9.33;;
146;SDS011;45999;48.808;9.182;2022-11-14T07:13:30;11.57;;;9.63;;
146;SDS011;45999;48.808;9.182;2022-11-14T07:15:58;13.47;;;9.27;;
146;SDS011;45999;48.808;9.182;2022-11-14T07:18:24;11.97;;;9.60;;
146;SDS011;45999;48.808;9.182;2022-11-14T07:20:58;11.27;;;8.67;;
146;SDS011;45999;48.808;9.182;2022-11-14T07:23:26;12.20;;;9.23;;
146;SDS011;45999;48.808;9.182;2022-11-14T07:25:53;11.47;;;9.93;;
146;SDS011;45999;48.808;9.182;2022-11-14T07:28:20;11.40;;;9.70;;
146;SDS011;45999;48.808;9.182;2022-11-14T07:30:46;11.93;;;9.70;;
146;SDS011;45999;48.808;9.182;2022-11-14T07:33:12;10.80;;;9.70;;
146;SDS011;45999;48.808;9.182;2022-11-14T07:35:39;11.37;;;10.13;;
146;SDS011;45999;48.808;9.182;2022-11-14T07:38:05;11.00;;;9.83;;
146;SDS011;45999;48.808;9.182;2022-11-14T07:40:31;10.63;;;9.63;;
146;SDS011;45999;48.808;9.182;2022-11-14T07:42:58;13.03;;;9.83;;
146;SDS011;45999;48.808;9.182;2022-11-14T07:45:26;11.90;;;9.50;;
146;SDS011;45999;48.808;9.182;2022-11-14T07:47:55;11.33;;;9.37;;
146;SDS011;45999;48.808;9.182;2022-11-14T07:50:22;13.47;;;9.40;;
146;SDS011;45999;48.808;9.182;2022-11-14T07:52:50;14.07;;;10.40;;
146;SDS011;45999;48.808;9.182;2022-11-14T07:55:18;12.93;;;9.33;;
146;SDS011;45999;48.808;9.182;2022-11-14T07:57:45;12.70;;;9.30;;
146;SDS011;45999;48.808;9.182;2022-11-14T08:00:12;10.77;;;9.27;;
146;SDS011;45999;48.808;9.182;2022-11-14T08:02:39;11.30;;;8.60;;
146;SDS011;45999;48.808;9.182;2022-11-14T08:05:06;10.47;;;8.23;;
146;SDS011;45999;48.808;9.182;2022-11-14T08:07:32;10.50;;;8.67;;
146;SDS011;45999;48.808;9.182;2022-11-14T08:09:59;10.97;;;8.20;;
146;SDS011;45999;48.808;9.182;2022-11-14T08:12:25;9.33;;;8.37;;
146;SDS011;45999;48.808;9.182;2022-11-14T08:14:51;9.07;;;8.17;;
146;SDS011;45999;48.808;9.182;2022-11-14T08:17:19;10.20;;;8.10;;
146;SDS011;45999;48.808;9.182;2022-11-14T08:19:46;10.23;;;8.60;;
146;SDS011;45999;48.808;9.182;2022-11-14T08:22:12;10.93;;;8.43;;
146;SDS011;45999;48.808;9.182;2022-11-14T08:24:39;10.73;;;8.67;;
146;SDS011;45999;48.808;9.182;2022-11-14T08:27:05;10.30;;;9.07;;
146;SDS011;45999;48.808;9.182;2022-11-14T08:29:31;10.83;;;8.63;;
146;SDS011;45999;48.808;9.182;2022-11-14T08:31:58;11.77;;;9.10;;
146;SDS011;45999;48.808;9.182;2022-11-14T08:34:24;11.00;;;9.33;;
146;SDS011;45999;48.808;9.182;2022-11-14T08:36:53;14.30;;;9.50;;
146;SDS011;45999;48.808;9.182;2022-11-14T08:39:20;10.47;;;9.50;;
146;SDS011;45999;48.808;9.182;2022-11-14T08:41:47;13.03;;;10.57;;
146;SDS011;45999;48.808;9.182;2022-11-14T08:44:13;11.17;;;9.43;;
146;SDS011;45999;48.808;9.182;2022-11-14T08:46:39;10.80;;;9.43;;
146;SDS011;45999;48.808;9.182;2022-11-14T08:49:06;14.40;;;11.00;;
146;SDS011;45999;48.808;9.182;2022-11-14T08:51:32;10.60;;;8.70;;
146;SDS011;45999;48.808;9.182;2022-11-14T08:53:58;8.23;;;7.30;;
146;SDS011;45999;48.808;9.182;2022-11-14T08:56:25;9.70;;;6.80;;
146;SDS011;45999;48.808;9.182;2022-11-14T08:58:51;9.77;;;7.17;;
146;SDS011;45999;48.808;9.182;2022-11-14T09:01:17;8.10;;;6.97;;
146;SDS011;45999;48.808;9.182;2022-11-14T09:03:44;8.10;;;6.13;;
146;SDS011;45999;48.808;9.182;2022-11-14T09:06:10;10.10;;;6.30;;
146;SDS011;45999;48.808;9.182;2022-11-14T09:08:36;7.23;;;6.33;;
146;SDS011;45999;48.808;9.182;2022-11-14T09:11:03;10.63;;;6.33;;
146;SDS011;45999;48.808;9.182;2022-11-14T09:13:33;10.87;;;5.87;;
146;SDS011;45999;48.808;9.182;2022-11-14T09:15:59;10.00;;;5.60;;
146;SDS011;45999;48.808;9.182;2022-11-14T09:18:26;5.90;;;5.17;;
146;SDS011;45999;48.808;9.182;2022-11-14T09:20:57;6.13;;;4.47;;
146;SDS011;45999;48.808;9.182;2022-11-14T09:23:25;4.93;;;4.10;;
146;SDS011;45999;48.808;9.182;2022-11-14T09:25:51;4.23;;;3.63;;
146;SDS011;45999;48.808;9.182;2022-11-14T09:28:18;4.90;;;4.40;;
146;SDS011;45999;48.808;9.182;2022-11-14T09:30:45;4.97;;;4.40;;
146;SDS011;45999;48.808;9.182;2022-11-14T09:33:11;5.00;;;4.20;;
146;SDS011;45999;48.808;9.182;2022-11-14T09:35:37;8.97;;;6.40;;
146;SDS011;45999;48.808;9.182;2022-11-14T09:38:05;9.70;;;7.10;;
146;SDS011;45999;48.808;9.182;2022-11-14T09:40:40;12.57;;;6.83;;
146;SDS011;45999;48.808;9.182;2022-11-14T09:43:22;11.77;;;8.23;;
146;SDS011;45999;48.808;9.182;2022-11-14T09:45:59;11.17;;;7.93;;
146;SDS011;45999;48.808;9.182;2022-11-14T09:48:28;9.53;;;7.23;;
146;SDS011;45999;48.808;9.182;2022-11-14T09:54:35;11.50;;;7.30;;
146;SDS011;45999;48.808;9.182;2022-11-14T09:56:32;7.97;;;6.67;;
146;SDS011;45999;48.808;9.182;2022-11-14T09:58:59;8.07;;;7.03;;
146;SDS011;45999;48.808;9.182;2022-11-14T10:04:19;9.60;;;5.90;;
146;SDS011;45999;48.808;9.182;2022-11-14T10:12:41;9.03;;;6.90;;
146;SDS011;45999;48.808;9.182;2022-11-14T10:20:56;10.43;;;6.60;;
146;SDS011;45999;48.808;9.182;2022-11-14T10:24:12;7.83;;;5.70;;
146;SDS011;45999;48.808;9.182;2022-11-14T10:26:28;7.47;;;6.37;;
146;SDS011;45999;48.808;9.182;2022-11-14T10:42:01;4.93;;;4.47;;
146;SDS011;45999;48.808;9.182;2022-11-14T10:44:35;4.67;;;3.90;;
146;SDS011;45999;48.808;9.182;2022-11-14T10:47:10;5.83;;;4.20;;
146;SDS011;45999;48.808;9.182;2022-11-14T10:49:39;5.23;;;4.50;;
146;SDS011;45999;48.808;9.182;2022-11-14T10:52:12;6.17;;;4.47;;
146;SDS011;45999;48.808;9.182;2022-11-14T10:54:44;6.00;;;4.00;;
146;SDS011;45999;48.808;9.182;2022-11-14T10:57:15;4.93;;;4.23;;
146;SDS011;45999;48.808;9.182;2022-11-14T10:59:43;5.00;;;3.87;;
146;SDS011;45999;48.808;9.182;2022-11-14T11:02:11;6.17;;;4.00;;
146;SDS011;45999;48.808;9.182;2022-11-14T11:04:39;5.97;;;4.20;;
146;SDS011;45999;48.808;9.182;2022-11-14T11:09:37;4.23;;;3.83;;
146;SDS011;45999;48.808;9.182;2022-11-14T11:15:14;4.47;;;4.07;;
146;SDS011;45999;48.808;9.182;2022-11-14T11:17:54;5.20;;;3.80;;
146;SDS011;45999;48.808;9.182;2022-11-14T11:20:25;4.60;;;3.87;;
146;SDS011;45999;48.808;9.182;2022-11-14T11:25:30;5.53;;;3.90;;
146;SDS011;45999;48.808;9.182;2022-11-14T11:28:04;4.40;;;3.60;;
146;SDS011;45999;48.808;9.182;2022-11-14T11:30:53;3.80;;;3.27;;
146;SDS011;45999;48.808;9.182;2022-11-14T11:33:28;5.10;;;3.50;;
146;SDS011;45999;48.808;9.182;2022-11-14T11:35:57;4.90;;;3.97;;
146;SDS011;45999;48.808;9.182;2022-11-14T11:38:26;4.97;;;3.60;;
146;SDS011;45999;48.808;9.182;2022-11-14T11:40:59;4.53;;;3.20;;
146;SDS011;45999;48.808;9.182;2022-11-14T11:46:05;4.87;;;3.10;;
146;SDS011;45999;48.808;9.182;2022-11-14T11:48:38;3.50;;;2.63;;
146;SDS011;45999;48.808;9.182;2022-11-14T11:51:09;3.33;;;2.63;;
146;SDS011;45999;48.808;9.182;2022-11-14T11:53:49;2.97;;;2.67;;
146;SDS011;45999;48.808;9.182;2022-11-14T11:56:24;2.83;;;2.10;;
146;SDS011;45999;48.808;9.182;2022-11-14T11:59:00;2.17;;;1.93;;
146;SDS011;45999;48.808;9.182;2022-11-14T12:01:46;1.70;;;1.60;;
146;SDS011;45999;48.808;9.182;2022-11-14T12:04:13;2.60;;;1.70;;
146;SDS011;45999;48.808;9.182;2022-11-14T12:06:48;4.60;;;1.50;;
146;SDS011;45999;48.808;9.182;2022-11-14T12:09:27;1.70;;;1.30;;
146;SDS011;45999;48.808;9.182;2022-11-14T12:12:00;1.60;;;1.50;;
146;SDS011;45999;48.808;9.182;2022-11-14T12:17:02;1.67;;;1.57;;
146;SDS011;45999;48.808;9.182;2022-11-14T12:28:36;2.77;;;1.77;;
146;SDS011;45999;48.808;9.182;2022-11-14T12:31:34;1.60;;;1.43;;
146;SDS011;45999;48.808;9.182;2022-11-14T12:34:03;2.43;;;1.50;;
146;SDS011;45999;48.808;9.182;2022-11-14T12:36:40;2.33;;;1.73;;
146;SDS011;45999;48.808;9.182;2022-11-14T12:39:18;2.90;;;1.87;;
146;SDS011;45999;48.808;9.182;2022-11-14T12:41:48;2.13;;;1.50;;
146;SDS011;45999;48.808;9.182;2022-11-14T12:44:30;1.90;;;1.70;;
146;SDS011;45999;48.808;9.182;2022-11-14T13:00:30;3.10;;;1.83;;
146;SDS011;45999;48.808;9.182;2022-11-14T13:05:53;3.00;;;1.70;;
146;SDS011;45999;48.808;9.182;2022-11-14T13:11:35;2.43;;;1.53;;
146;SDS011;45999;48.808;9.182;2022-11-14T13:14:26;1.70;;;1.60;;
146;SDS011;45999;48.808;9.182;2022-11-14T13:17:26;1.43;;;1.33;;
146;SDS011;45999;48.808;9.182;2022-11-14T13:31:05;2.80;;;1.50;;
146;SDS011;45999;48.808;9.182;2022-11-14T13:33:48;2.40;;;1.33;;
146;SDS011;45999;48.808;9.182;2022-11-14T13:36:20;2.70;;;1.30;;
146;SDS011;45999;48.808;9.182;2022-11-14T13:47:11;2.30;;;1.80;;
146;SDS011;45999;48.808;9.182;2022-11-14T13:50:04;1.83;;;1.70;;
146;SDS011;45999;48.808;9.182;2022-11-14T13:52:33;3.60;;;1.70;;
146;SDS011;45999;48.808;9.182;2022-11-14T13:55:04;2.63;;;1.97;;
146;SDS011;45999;48.808;9.182;2022-11-14T14:00:19;3.87;;;1.90;;
146;SDS011;45999;48.808;9.182;2022-11-14T14:16:57;1.73;;;1.63;;
146;SDS011;45999;48.808;9.182;2022-11-14T14:24:39;2.50;;;2.30;;
146;SDS011;45999;48.808;9.182;2022-11-14T14:30:41;2.67;;;2.20;;
146;SDS011;45999;48.808;9.182;2022-11-14T14:33:26;3.50;;;2.13;;
146;SDS011;45999;48.808;9.182;2022-11-14T14:35:54;3.33;;;2.10;;
146;SDS011;45999;48.808;9.182;2022-11-14T14:38:24;3.80;;;2.30;;
146;SDS011;45999;48.808;9.182;2022-11-14T14:40:52;3.37;;;1.97;;
146;SDS011;45999;48.808;9.182;2022-11-14T14:46:00;4.63;;;2.10;;
146;SDS011;45999;48.808;9.182;2022-11-14T14:48:27;2.67;;;2.30;;
146;SDS011;45999;48.808;9.182;2022-11-14T14:50:56;4.10;;;2.43;;
146;SDS011;45999;48.808;9.182;2022-11-14T14:55:53;2.57;;;1.97;;
146;SDS011;45999;48.808;9.182;2022-11-14T15:00:51;4.13;;;1.90;;
146;SDS011;45999;48.808;9.182;2022-11-14T15:03:20;2.47;;;2.20;;
146;SDS011;45999;48.808;9.182;2022-11-14T15:05:48;3.00;;;2.20;;
146;SDS011;45999;48.808;9.182;2022-11-14T15:08:23;3.17;;;2.30;;
146;SDS011;45999;48.808;9.182;2022-11-14T15:10:51;2.47;;;2.27;;
146;SDS011;45999;48.808;9.182;2022-11-14T15:13:22;3.70;;;1.97;;
146;SDS011;45999;48.808;9.182;2022-11-14T15:15:50;5.50;;;2.00;;
146;SDS011;45999;48.808;9.182;2022-11-14T15:18:39;3.00;;;2.10;;
146;SDS011;45999;48.808;9.182;2022-11-14T15:21:05;3.20;;;2.23;;
146;SDS011;45999;48.808;9.182;2022-11-14T15:23:39;2.73;;;1.80;;
146;SDS011;45999;48.808;9.182;2022-11-14T15:26:16;2.80;;;2.17;;
146;SDS011;45999;48.808;9.182;2022-11-14T15:28:43;2.67;;;1.70;;
146;SDS011;45999;48.808;9.182;2022-11-14T15:31:20;3.37;;;2.00;;
146;SDS011;45999;48.808;9.182;2022-11-14T15:34:20;3.60;;;1.77;;
146;SDS011;45999;48.808;9.182;2022-11-14T15:39:38;4.00;;;1.83;;
146;SDS011;45999;48.808;9.182;2022-11-14T15:44:37;6.27;;;2.47;;
146;SDS011;45999;48.808;9.182;2022-11-14T15:47:08;4.17;;;2.37;;
146;SDS011;45999;48.808;9.182;2022-11-14T15:49:37;5.17;;;3.20;;
146;SDS011;45999;48.808;9.182;2022-11-14T15:52:04;3.73;;;2.80;;
146;SDS011;45999;48.808;9.182;2022-11-14T15:54:31;3.03;;;2.37;;
146;SDS011;45999;48.808;9.182;2022-11-14T15:57:00;4.40;;;2.40;;
146;SDS011;45999;48.808;9.182;2022-11-14T15:59:31;2.63;;;2.17;;
146;SDS011;45999;48.808;9.182;2022-11-14T16:02:01;4.83;;;2.37;;
146;SDS011;45999;48.808;9.182;2022-11-14T16:04:35;6.57;;;2.60;;
146;SDS011;45999;48.808;9.182;2022-11-14T16:07:03;3.27;;;2.53;;
146;SDS011;45999;48.808;9.182;2022-11-14T16:09:29;6.03;;;2.47;;
146;SDS011;45999;48.808;9.182;2022-11-14T16:11:56;3.63;;;2.60;;
146;SDS011;45999;48.808;9.182;2022-11-14T16:14:22;4.93;;;2.47;;
146;SDS011;45999;48.808;9.182;2022-11-14T16:16:48;4.07;;;2.90;;
146;SDS011;45999;48.808;9.182;2022-11-14T16:19:15;8.27;;;4.10;;
146;SDS011;45999;48.808;9.182;2022-11-14T16:21:42;7.67;;;6.23;;
146;SDS011;45999;48.808;9.182;2022-11-14T16:24:26;7.33;;;4.33;;
146;SDS011;45999;48.808;9.182;2022-11-14T16:26:54;5.90;;;4.10;;
146;SDS011;45999;48.808;9.182;2022-11-14T16:29:21;4.23;;;3.50;;
146;SDS011;45999;48.808;9.182;2022-11-14T16:31:48;4.20;;;3.10;;
146;SDS011;45999;48.808;9.182;2022-11-14T16:34:19;5.93;;;3.00;;
146;SDS011;45999;48.808;9.182;2022-11-14T16:36:49;3.10;;;2.60;;
146;SDS011;45999;48.808;9.182;2022-11-14T16:39:23;3.20;;;2.73;;
146;SDS011;45999;48.808;9.182;2022-11-14T16:41:49;4.93;;;2.63;;
146;SDS011;45999;48.808;9.182;2022-11-14T16:44:16;3.97;;;2.80;;
146;SDS011;45999;48.808;9.182;2022-11-14T16:46:42;3.90;;;2.53;;
146;SDS011;45999;48.808;9.182;2022-11-14T16:49:11;5.03;;;2.90;;
146;SDS011;45999;48.808;9.182;2022-11-14T16:51:42;3.87;;;3.20;;
146;SDS011;45999;48.808;9.182;2022-11-14T16:54:09;8.07;;;3.43;;
146;SDS011;45999;48.808;9.182;2022-11-14T16:56:37;5.10;;;3.30;;
146;SDS011;45999;48.808;9.182;2022-11-14T16:59:04;6.67;;;3.10;;
146;SDS011;45999;48.808;9.182;2022-11-14T17:01:30;3.77;;;2.73;;
146;SDS011;45999;48.808;9.182;2022-11-14T17:03:56;3.70;;;2.53;;
146;SDS011;45999;48.808;9.182;2022-11-14T17:06:24;3.10;;;2.60;;
146;SDS011;45999;48.808;9.182;2022-11-14T17:08:54;4.57;;;2.73;;
146;SDS011;45999;48.808;9.182;2022-11-14T17:11:24;3.70;;;2.73;;
146;SDS011;45999;48.808;9.182;2022-11-14T17:13:52;4.10;;;2.40;;
146;SDS011;45999;48.808;9.182;2022-11-14T17:16:20;3.47;;;2.40;;
146;SDS011;45999;48.808;9.182;2022-11-14T17:18:50;4.07;;;2.60;;
146;SDS011;45999;48.808;9.182;2022-11-14T17:21:19;6.03;;;2.70;;
146;SDS011;45999;48.808;9.182;2022-11-14T17:23:45;3.67;;;2.77;;
146;SDS011;45999;48.808;9.182;2022-11-14T17:26:12;3.63;;;2.93;;
146;SDS011;45999;48.808;9.182;2022-11-14T17:28:38;4.40;;;2.80;;
146;SDS011;45999;48.808;9.182;2022-11-14T17:31:07;3.83;;;2.70;;